sensor_id;sensor_type;location;lat;lon;timestamp;P1;durP1;ratioP1;P2;durP2;ratioP2
22015;SDS011;11172;51.698;-0.292;2022-10-12T00:00:37;795.35;;;379.05;;
22015;SDS011;11172;51.698;-0.292;2022-10-12T00:03:03;573.92;;;264.05;;
22015;SDS011;11172;51.698;-0.292;2022-10-12T00:05:30;578.40;;;272.63;;
22015;SDS011;11172;51.698;-0.292;2022-10-12T00:07:55;792.45;;;377.25;;
22015;SDS011;11172;51.698;-0.292;2022-10-12T00:10:21;788.45;;;375.58;;
22015;SDS011;11172;51.698;-0.292;2022-10-12T00:12:47;570.45;;;260.98;;
22015;SDS011;11172;51.698;-0.292;2022-10-12T00:15:13;789.28;;;385.48;;
22015;SDS011;11172;51.698;-0.292;2022-10-12T00:17:39;578.50;;;256.52;;
22015;SDS011;11172;51.698;-0.292;2022-10-12T00:20:06;789.55;;;375.73;;
22015;SDS011;11172;51.698;-0.292;2022-10-12T00:25:01;791.55;;;376.85;;
22015;SDS011;11172;51.698;-0.292;2022-10-12T00:27:27;571.80;;;269.52;;
22015;SDS011;11172;51.698;-0.292;2022-10-12T00:29:53;784.03;;;369.05;;
22015;SDS011;11172;51.698;-0.292;2022-10-12T00:32:19;785.22;;;376.75;;
22015;SDS011;11172;51.698;-0.292;2022-10-12T00:34:45;573.95;;;266.30;;
22015;SDS011;11172;51.698;-0.292;2022-10-12T00:37:11;572.78;;;256.00;;
22015;SDS011;11172;51.698;-0.292;2022-10-12T00:39:37;574.20;;;271.58;;
22015;SDS011;11172;51.698;-0.292;2022-10-12T00:42:03;580.20;;;278.52;;
22015;SDS011;11172;51.698;-0.292;2022-10-12T00:44:34;800.20;;;389.75;;
22015;SDS011;11172;51.698;-0.292;2022-10-12T00:47:02;571.15;;;257.30;;
22015;SDS011;11172;51.698;-0.292;2022-10-12T00:49:29;785.35;;;369.17;;
22015;SDS011;11172;51.698;-0.292;2022-10-12T00:51:56;577.83;;;273.58;;
22015;SDS011;11172;51.698;-0.292;2022-10-12T00:54:27;567.78;;;252.50;;
22015;SDS011;11172;51.698;-0.292;2022-10-12T00:56:56;790.45;;;362.13;;
22015;SDS011;11172;51.698;-0.292;2022-10-12T00:59:31;573.15;;;259.10;;
22015;SDS011;11172;51.698;-0.292;2022-10-12T01:01:57;572.40;;;270.15;;
22015;SDS011;11172;51.698;-0.292;2022-10-12T01:04:23;575.78;;;271.70;;
22015;SDS011;11172;51.698;-0.292;2022-10-12T01:06:50;791.40;;;359.38;;
22015;SDS011;11172;51.698;-0.292;2022-10-12T01:09:16;569.60;;;252.65;;
22015;SDS011;11172;51.698;-0.292;2022-10-12T01:11:43;573.50;;;262.30;;
22015;SDS011;11172;51.698;-0.292;2022-10-12T01:14:09;788.00;;;364.48;;
22015;SDS011;11172;51.698;-0.292;2022-10-12T01:21:27;786.22;;;355.80;;
22015;SDS011;11172;51.698;-0.292;2022-10-12T01:34:18;799.03;;;365.63;;
22015;SDS011;11172;51.698;-0.292;2022-10-12T01:36:51;791.25;;;352.08;;
22015;SDS011;11172;51.698;-0.292;2022-10-12T01:41:49;783.83;;;345.83;;
22015;SDS011;11172;51.698;-0.292;2022-10-12T01:44:19;570.40;;;246.55;;
22015;SDS011;11172;51.698;-0.292;2022-10-12T01:46:45;570.83;;;235.27;;
22015;SDS011;11172;51.698;-0.292;2022-10-12T01:49:12;571.83;;;247.75;;
22015;SDS011;11172;51.698;-0.292;2022-10-12T01:52:01;792.05;;;341.92;;
22015;SDS011;11172;51.698;-0.292;2022-10-12T01:57:01;568.80;;;230.30;;
22015;SDS011;11172;51.698;-0.292;2022-10-12T01:59:39;572.90;;;247.15;;
22015;SDS011;11172;51.698;-0.292;2022-10-12T02:07:11;568.83;;;243.50;;
22015;SDS011;11172;51.698;-0.292;2022-10-12T02:09:38;788.65;;;337.08;;
22015;SDS011;11172;51.698;-0.292;2022-10-12T02:12:07;782.28;;;332.63;;
22015;SDS011;11172;51.698;-0.292;2022-10-12T02:14:37;784.45;;;329.75;;
22015;SDS011;11172;51.698;-0.292;2022-10-12T02:17:04;781.25;;;327.00;;
22015;SDS011;11172;51.698;-0.292;2022-10-12T02:19:34;782.40;;;325.30;;
22015;SDS011;11172;51.698;-0.292;2022-10-12T02:22:03;780.28;;;327.45;;
22015;SDS011;11172;51.698;-0.292;2022-10-12T02:24:30;568.15;;;227.07;;
22015;SDS011;11172;51.698;-0.292;2022-10-12T02:26:57;568.67;;;226.95;;
22015;SDS011;11172;51.698;-0.292;2022-10-12T02:29:25;783.25;;;327.73;;
22015;SDS011;11172;51.698;-0.292;2022-10-12T02:32:01;573.72;;;232.85;;
22015;SDS011;11172;51.698;-0.292;2022-10-12T02:36:56;568.83;;;222.05;;
22015;SDS011;11172;51.698;-0.292;2022-10-12T02:39:32;566.60;;;220.40;;
22015;SDS011;11172;51.698;-0.292;2022-10-12T02:42:00;572.10;;;224.38;;
22015;SDS011;11172;51.698;-0.292;2022-10-12T02:44:31;787.90;;;308.45;;
22015;SDS011;11172;51.698;-0.292;2022-10-12T02:46:58;574.50;;;227.00;;
22015;SDS011;11172;51.698;-0.292;2022-10-12T02:49:26;782.50;;;321.25;;
22015;SDS011;11172;51.698;-0.292;2022-10-12T02:51:52;573.55;;;222.63;;
22015;SDS011;11172;51.698;-0.292;2022-10-12T02:54:19;781.92;;;308.70;;
22015;SDS011;11172;51.698;-0.292;2022-10-12T02:56:46;570.45;;;217.15;;
22015;SDS011;11172;51.698;-0.292;2022-10-12T02:59:12;784.50;;;315.00;;
22015;SDS011;11172;51.698;-0.292;2022-10-12T03:01:39;780.90;;;316.95;;
22015;SDS011;11172;51.698;-0.292;2022-10-12T03:04:05;572.47;;;217.65;;
22015;SDS011;11172;51.698;-0.292;2022-10-12T03:06:31;580.25;;;232.88;;
22015;SDS011;11172;51.698;-0.292;2022-10-12T03:08:57;572.72;;;224.15;;
22015;SDS011;11172;51.698;-0.292;2022-10-12T03:11:23;791.53;;;321.27;;
22015;SDS011;11172;51.698;-0.292;2022-10-12T03:13:52;783.20;;;297.35;;
22015;SDS011;11172;51.698;-0.292;2022-10-12T03:16:18;786.78;;;303.10;;
22015;SDS011;11172;51.698;-0.292;2022-10-12T03:18:44;783.65;;;318.13;;
22015;SDS011;11172;51.698;-0.292;2022-10-12T03:21:10;567.92;;;221.45;;
22015;SDS011;11172;51.698;-0.292;2022-10-12T03:26:03;781.17;;;306.15;;
22015;SDS011;11172;51.698;-0.292;2022-10-12T03:28:29;570.70;;;226.02;;
22015;SDS011;11172;51.698;-0.292;2022-10-12T03:30:55;777.10;;;305.33;;
22015;SDS011;11172;51.698;-0.292;2022-10-12T03:33:21;784.17;;;313.17;;
22015;SDS011;11172;51.698;-0.292;2022-10-12T03:35:47;570.83;;;219.98;;
22015;SDS011;11172;51.698;-0.292;2022-10-12T03:38:14;777.45;;;311.63;;
22015;SDS011;11172;51.698;-0.292;2022-10-12T03:40:40;781.28;;;321.35;;
22015;SDS011;11172;51.698;-0.292;2022-10-12T03:50:54;574.65;;;226.50;;
22015;SDS011;11172;51.698;-0.292;2022-10-12T03:53:20;788.10;;;321.58;;
22015;SDS011;11172;51.698;-0.292;2022-10-12T03:55:46;582.90;;;223.30;;
22015;SDS011;11172;51.698;-0.292;2022-10-12T03:58:12;792.78;;;320.92;;
22015;SDS011;11172;51.698;-0.292;2022-10-12T04:00:38;796.30;;;349.00;;
22015;SDS011;11172;51.698;-0.292;2022-10-12T04:03:04;789.92;;;343.60;;
22015;SDS011;11172;51.698;-0.292;2022-10-12T04:05:30;577.13;;;234.75;;
22015;SDS011;11172;51.698;-0.292;2022-10-12T04:07:57;798.78;;;333.60;;
22015;SDS011;11172;51.698;-0.292;2022-10-12T04:10:23;569.35;;;228.07;;
22015;SDS011;11172;51.698;-0.292;2022-10-12T04:12:49;792.83;;;334.55;;
22015;SDS011;11172;51.698;-0.292;2022-10-12T04:15:15;580.65;;;254.27;;
22015;SDS011;11172;51.698;-0.292;2022-10-12T04:17:44;786.63;;;347.48;;
22015;SDS011;11172;51.698;-0.292;2022-10-12T04:20:10;577.17;;;249.32;;
22015;SDS011;11172;51.698;-0.292;2022-10-12T04:22:37;794.85;;;362.02;;
22015;SDS011;11172;51.698;-0.292;2022-10-12T04:25:03;577.53;;;254.13;;
22015;SDS011;11172;51.698;-0.292;2022-10-12T04:27:29;797.00;;;370.17;;
22015;SDS011;11172;51.698;-0.292;2022-10-12T04:29:55;793.58;;;366.63;;
22015;SDS011;11172;51.698;-0.292;2022-10-12T04:32:21;580.00;;;266.20;;
22015;SDS011;11172;51.698;-0.292;2022-10-12T04:34:47;575.88;;;251.55;;
22015;SDS011;11172;51.698;-0.292;2022-10-12T04:37:13;815.50;;;389.45;;
22015;SDS011;11172;51.698;-0.292;2022-10-12T04:39:39;799.42;;;384.73;;
22015;SDS011;11172;51.698;-0.292;2022-10-12T04:42:05;580.10;;;264.35;;
22015;SDS011;11172;51.698;-0.292;2022-10-12T04:44:31;576.83;;;258.77;;
22015;SDS011;11172;51.698;-0.292;2022-10-12T04:46:58;578.00;;;255.65;;
22015;SDS011;11172;51.698;-0.292;2022-10-12T04:49:24;791.88;;;378.55;;
22015;SDS011;11172;51.698;-0.292;2022-10-12T04:51:50;576.80;;;262.05;;
22015;SDS011;11172;51.698;-0.292;2022-10-12T04:54:16;793.83;;;366.65;;
22015;SDS011;11172;51.698;-0.292;2022-10-12T04:56:42;795.42;;;379.10;;
22015;SDS011;11172;51.698;-0.292;2022-10-12T04:59:08;792.60;;;377.25;;
22015;SDS011;11172;51.698;-0.292;2022-10-12T05:01:34;795.75;;;372.33;;
22015;SDS011;11172;51.698;-0.292;2022-10-12T05:04:00;574.90;;;260.50;;
22015;SDS011;11172;51.698;-0.292;2022-10-12T05:06:26;578.95;;;261.40;;
22015;SDS011;11172;51.698;-0.292;2022-10-12T05:08:52;572.63;;;256.85;;
22015;SDS011;11172;51.698;-0.292;2022-10-12T05:11:18;583.67;;;269.45;;
22015;SDS011;11172;51.698;-0.292;2022-10-12T05:13:44;579.22;;;270.75;;
22015;SDS011;11172;51.698;-0.292;2022-10-12T05:16:10;575.28;;;259.58;;
22015;SDS011;11172;51.698;-0.292;2022-10-12T05:18:36;571.40;;;257.20;;
22015;SDS011;11172;51.698;-0.292;2022-10-12T05:21:02;791.20;;;369.27;;
22015;SDS011;11172;51.698;-0.292;2022-10-12T05:23:28;573.45;;;256.55;;
22015;SDS011;11172;51.698;-0.292;2022-10-12T05:25:54;790.35;;;374.45;;
22015;SDS011;11172;51.698;-0.292;2022-10-12T05:28:20;796.92;;;377.63;;
22015;SDS011;11172;51.698;-0.292;2022-10-12T05:30:50;794.10;;;372.02;;
22015;SDS011;11172;51.698;-0.292;2022-10-12T05:33:16;803.90;;;390.38;;
22015;SDS011;11172;51.698;-0.292;2022-10-12T05:35:42;589.92;;;271.35;;
22015;SDS011;11172;51.698;-0.292;2022-10-12T05:38:09;582.70;;;274.73;;
22015;SDS011;11172;51.698;-0.292;2022-10-12T05:40:35;805.00;;;395.23;;
22015;SDS011;11172;51.698;-0.292;2022-10-12T05:43:01;592.50;;;279.98;;
22015;SDS011;11172;51.698;-0.292;2022-10-12T05:45:27;589.00;;;279.30;;
22015;SDS011;11172;51.698;-0.292;2022-10-12T05:47:53;806.45;;;386.85;;
22015;SDS011;11172;51.698;-0.292;2022-10-12T05:50:19;588.70;;;279.67;;
22015;SDS011;11172;51.698;-0.292;2022-10-12T05:52:45;581.95;;;260.17;;
22015;SDS011;11172;51.698;-0.292;2022-10-12T05:55:11;825.15;;;377.02;;
22015;SDS011;11172;51.698;-0.292;2022-10-12T05:57:37;805.58;;;388.30;;
22015;SDS011;11172;51.698;-0.292;2022-10-12T06:00:04;582.42;;;260.15;;
22015;SDS011;11172;51.698;-0.292;2022-10-12T06:02:31;585.55;;;261.38;;
22015;SDS011;11172;51.698;-0.292;2022-10-12T06:04:56;795.30;;;365.35;;
22015;SDS011;11172;51.698;-0.292;2022-10-12T06:07:22;581.15;;;259.08;;
22015;SDS011;11172;51.698;-0.292;2022-10-12T06:09:48;797.72;;;360.83;;
22015;SDS011;11172;51.698;-0.292;2022-10-12T06:12:14;575.65;;;244.10;;
22015;SDS011;11172;51.698;-0.292;2022-10-12T06:14:41;801.38;;;366.33;;
22015;SDS011;11172;51.698;-0.292;2022-10-12T06:17:07;795.28;;;357.80;;
22015;SDS011;11172;51.698;-0.292;2022-10-12T06:19:33;580.55;;;257.73;;
22015;SDS011;11172;51.698;-0.292;2022-10-12T06:21:59;578.00;;;254.35;;
22015;SDS011;11172;51.698;-0.292;2022-10-12T06:24:26;789.15;;;349.02;;
22015;SDS011;11172;51.698;-0.292;2022-10-12T06:26:52;792.65;;;362.60;;
22015;SDS011;11172;51.698;-0.292;2022-10-12T06:29:18;613.92;;;261.75;;
22015;SDS011;11172;51.698;-0.292;2022-10-12T06:31:47;577.13;;;239.30;;
22015;SDS011;11172;51.698;-0.292;2022-10-12T06:34:13;579.13;;;253.63;;
22015;SDS011;11172;51.698;-0.292;2022-10-12T06:36:39;790.92;;;347.75;;
22015;SDS011;11172;51.698;-0.292;2022-10-12T06:39:05;787.63;;;353.35;;
22015;SDS011;11172;51.698;-0.292;2022-10-12T06:41:31;573.45;;;254.45;;
22015;SDS011;11172;51.698;-0.292;2022-10-12T06:43:57;794.25;;;360.88;;
22015;SDS011;11172;51.698;-0.292;2022-10-12T06:46:23;815.13;;;374.58;;
22015;SDS011;11172;51.698;-0.292;2022-10-12T06:48:49;572.42;;;244.38;;
22015;SDS011;11172;51.698;-0.292;2022-10-12T06:51:15;591.50;;;270.83;;
22015;SDS011;11172;51.698;-0.292;2022-10-12T06:53:41;577.63;;;252.25;;
22015;SDS011;11172;51.698;-0.292;2022-10-12T06:56:07;582.38;;;264.35;;
22015;SDS011;11172;51.698;-0.292;2022-10-12T06:58:33;787.10;;;345.73;;
22015;SDS011;11172;51.698;-0.292;2022-10-12T07:01:03;798.05;;;369.15;;
22015;SDS011;11172;51.698;-0.292;2022-10-12T07:03:30;591.50;;;258.17;;
22015;SDS011;11172;51.698;-0.292;2022-10-12T07:06:03;578.03;;;253.60;;
22015;SDS011;11172;51.698;-0.292;2022-10-12T07:08:31;588.40;;;266.95;;
22015;SDS011;11172;51.698;-0.292;2022-10-12T07:11:01;806.42;;;379.13;;
22015;SDS011;11172;51.698;-0.292;2022-10-12T07:13:27;810.08;;;384.17;;
22015;SDS011;11172;51.698;-0.292;2022-10-12T07:15:53;583.92;;;258.15;;
22015;SDS011;11172;51.698;-0.292;2022-10-12T07:18:19;802.85;;;383.38;;
22015;SDS011;11172;51.698;-0.292;2022-10-12T07:20:45;805.03;;;387.98;;
22015;SDS011;11172;51.698;-0.292;2022-10-12T07:25:50;583.83;;;283.08;;
22015;SDS011;11172;51.698;-0.292;2022-10-12T07:28:17;588.13;;;285.77;;
22015;SDS011;11172;51.698;-0.292;2022-10-12T07:30:43;584.35;;;285.40;;
22015;SDS011;11172;51.698;-0.292;2022-10-12T07:33:09;585.33;;;281.75;;
22015;SDS011;11172;51.698;-0.292;2022-10-12T07:35:36;808.70;;;408.83;;
22015;SDS011;11172;51.698;-0.292;2022-10-12T07:38:02;590.50;;;290.08;;
22015;SDS011;11172;51.698;-0.292;2022-10-12T07:40:28;585.20;;;294.15;;
22015;SDS011;11172;51.698;-0.292;2022-10-12T07:42:55;583.78;;;289.20;;
22015;SDS011;11172;51.698;-0.292;2022-10-12T07:45:21;587.40;;;302.95;;
22015;SDS011;11172;51.698;-0.292;2022-10-12T07:47:49;588.00;;;301.85;;
22015;SDS011;11172;51.698;-0.292;2022-10-12T07:50:15;820.33;;;441.50;;
22015;SDS011;11172;51.698;-0.292;2022-10-12T07:52:41;812.50;;;446.48;;
22015;SDS011;11172;51.698;-0.292;2022-10-12T07:55:07;819.53;;;460.38;;
22015;SDS011;11172;51.698;-0.292;2022-10-12T07:57:33;815.65;;;454.98;;
22015;SDS011;11172;51.698;-0.292;2022-10-12T07:59:59;816.35;;;472.88;;
22015;SDS011;11172;51.698;-0.292;2022-10-12T08:02:25;822.95;;;488.45;;
22015;SDS011;11172;51.698;-0.292;2022-10-12T08:04:51;602.08;;;353.77;;
22015;SDS011;11172;51.698;-0.292;2022-10-12T08:07:17;826.88;;;507.83;;
22015;SDS011;11172;51.698;-0.292;2022-10-12T08:09:43;833.45;;;525.20;;
22015;SDS011;11172;51.698;-0.292;2022-10-12T08:12:10;827.20;;;537.78;;
22015;SDS011;11172;51.698;-0.292;2022-10-12T08:14:36;842.13;;;558.05;;
22015;SDS011;11172;51.698;-0.292;2022-10-12T08:17:02;845.15;;;579.67;;
22015;SDS011;11172;51.698;-0.292;2022-10-12T08:19:29;840.30;;;577.17;;
22015;SDS011;11172;51.698;-0.292;2022-10-12T08:21:55;847.50;;;605.20;;
22015;SDS011;11172;51.698;-0.292;2022-10-12T08:24:21;849.08;;;627.35;;
22015;SDS011;11172;51.698;-0.292;2022-10-12T08:26:47;850.55;;;639.83;;
22015;SDS011;11172;51.698;-0.292;2022-10-12T08:29:13;860.85;;;680.60;;
22015;SDS011;11172;51.698;-0.292;2022-10-12T08:31:39;866.50;;;700.25;;
22015;SDS011;11172;51.698;-0.292;2022-10-12T08:34:05;871.67;;;729.58;;
22015;SDS011;11172;51.698;-0.292;2022-10-12T08:36:32;868.88;;;730.80;;
22015;SDS011;11172;51.698;-0.292;2022-10-12T08:38:58;865.25;;;729.50;;
22015;SDS011;11172;51.698;-0.292;2022-10-12T08:41:45;863.97;;;735.95;;
22015;SDS011;11172;51.698;-0.292;2022-10-12T08:46:48;869.55;;;749.85;;
22015;SDS011;11172;51.698;-0.292;2022-10-12T08:49:18;854.92;;;747.28;;
22015;SDS011;11172;51.698;-0.292;2022-10-12T08:51:46;855.83;;;756.42;;
22015;SDS011;11172;51.698;-0.292;2022-10-12T08:54:14;862.17;;;764.30;;
22015;SDS011;11172;51.698;-0.292;2022-10-12T08:56:42;881.38;;;787.08;;
22015;SDS011;11172;51.698;-0.292;2022-10-12T08:59:12;926.15;;;831.85;;
22015;SDS011;11172;51.698;-0.292;2022-10-12T09:01:47;968.25;;;872.78;;
22015;SDS011;11172;51.698;-0.292;2022-10-12T09:04:20;983.38;;;888.13;;
22015;SDS011;11172;51.698;-0.292;2022-10-12T09:06:57;1008.78;;;913.72;;
22015;SDS011;11172;51.698;-0.292;2022-10-12T09:09:40;1011.97;;;917.85;;
22015;SDS011;11172;51.698;-0.292;2022-10-12T09:14:37;1025.20;;;932.35;;
22015;SDS011;11172;51.698;-0.292;2022-10-12T09:17:08;1017.92;;;927.53;;
22015;SDS011;11172;51.698;-0.292;2022-10-12T09:19:40;1015.42;;;925.55;;
22015;SDS011;11172;51.698;-0.292;2022-10-12T09:22:16;1009.70;;;920.42;;
22015;SDS011;11172;51.698;-0.292;2022-10-12T09:24:44;995.03;;;907.38;;
22015;SDS011;11172;51.698;-0.292;2022-10-12T09:27:16;972.75;;;887.55;;
22015;SDS011;11172;51.698;-0.292;2022-10-12T09:29:46;963.90;;;879.83;;
22015;SDS011;11172;51.698;-0.292;2022-10-12T09:34:39;931.72;;;851.35;;
22015;SDS011;11172;51.698;-0.292;2022-10-12T09:37:05;934.70;;;854.00;;
22015;SDS011;11172;51.698;-0.292;2022-10-12T09:39:33;920.08;;;840.88;;
22015;SDS011;11172;51.698;-0.292;2022-10-12T09:42:01;919.45;;;841.10;;
22015;SDS011;11172;51.698;-0.292;2022-10-12T09:44:31;896.70;;;820.47;;
22015;SDS011;11172;51.698;-0.292;2022-10-12T09:46:59;894.45;;;817.92;;
22015;SDS011;11172;51.698;-0.292;2022-10-12T09:49:45;882.40;;;806.55;;
22015;SDS011;11172;51.698;-0.292;2022-10-12T09:52:11;889.58;;;813.03;;
22015;SDS011;11172;51.698;-0.292;2022-10-12T09:54:39;873.60;;;798.58;;
22015;SDS011;11172;51.698;-0.292;2022-10-12T09:57:10;865.58;;;791.53;;
22015;SDS011;11172;51.698;-0.292;2022-10-12T09:59:43;867.38;;;793.80;;
22015;SDS011;11172;51.698;-0.292;2022-10-12T10:04:35;857.72;;;784.22;;
22015;SDS011;11172;51.698;-0.292;2022-10-12T10:09:37;861.08;;;787.25;;
22015;SDS011;11172;51.698;-0.292;2022-10-12T10:12:22;841.45;;;769.95;;
22015;SDS011;11172;51.698;-0.292;2022-10-12T10:14:50;859.50;;;786.58;;
22015;SDS011;11172;51.698;-0.292;2022-10-12T10:17:22;836.85;;;765.50;;
22015;SDS011;11172;51.698;-0.292;2022-10-12T10:19:49;838.33;;;766.88;;
22015;SDS011;11172;51.698;-0.292;2022-10-12T10:22:15;824.00;;;753.97;;
22015;SDS011;11172;51.698;-0.292;2022-10-12T10:24:41;818.42;;;749.67;;
22015;SDS011;11172;51.698;-0.292;2022-10-12T10:27:09;816.30;;;747.55;;
22015;SDS011;11172;51.698;-0.292;2022-10-12T10:29:51;826.83;;;757.35;;
22015;SDS011;11172;51.698;-0.292;2022-10-12T10:32:23;808.05;;;739.92;;
22015;SDS011;11172;51.698;-0.292;2022-10-12T10:37:27;804.05;;;736.15;;
22015;SDS011;11172;51.698;-0.292;2022-10-12T10:39:54;791.67;;;725.70;;
22015;SDS011;11172;51.698;-0.292;2022-10-12T10:42:23;799.85;;;732.72;;
22015;SDS011;11172;51.698;-0.292;2022-10-12T10:45:04;790.03;;;723.45;;
22015;SDS011;11172;51.698;-0.292;2022-10-12T10:47:32;795.50;;;728.03;;
22015;SDS011;11172;51.698;-0.292;2022-10-12T10:49:59;780.42;;;715.33;;
22015;SDS011;11172;51.698;-0.292;2022-10-12T10:52:27;783.40;;;718.15;;
22015;SDS011;11172;51.698;-0.292;2022-10-12T10:57:55;788.90;;;721.70;;
22015;SDS011;11172;51.698;-0.292;2022-10-12T11:00:23;755.08;;;692.25;;
22015;SDS011;11172;51.698;-0.292;2022-10-12T11:02:53;756.13;;;693.17;;
22015;SDS011;11172;51.698;-0.292;2022-10-12T11:05:34;757.63;;;693.63;;
22015;SDS011;11172;51.698;-0.292;2022-10-12T11:08:05;767.92;;;703.20;;
22015;SDS011;11172;51.698;-0.292;2022-10-12T11:10:41;759.63;;;695.55;;
22015;SDS011;11172;51.698;-0.292;2022-10-12T11:13:19;751.65;;;688.45;;
22015;SDS011;11172;51.698;-0.292;2022-10-12T11:20:54;751.17;;;688.83;;
22015;SDS011;11172;51.698;-0.292;2022-10-12T11:28:32;742.63;;;680.97;;
22015;SDS011;11172;51.698;-0.292;2022-10-12T11:31:00;726.90;;;666.10;;
22015;SDS011;11172;51.698;-0.292;2022-10-12T11:33:29;714.58;;;655.35;;
22015;SDS011;11172;51.698;-0.292;2022-10-12T11:35:59;717.63;;;658.53;;
22015;SDS011;11172;51.698;-0.292;2022-10-12T11:38:30;715.80;;;657.63;;
22015;SDS011;11172;51.698;-0.292;2022-10-12T11:43:26;689.47;;;633.33;;
22015;SDS011;11172;51.698;-0.292;2022-10-12T11:45:55;705.55;;;646.10;;
22015;SDS011;11172;51.698;-0.292;2022-10-12T11:48:26;703.05;;;645.45;;
22015;SDS011;11172;51.698;-0.292;2022-10-12T11:50:55;701.85;;;644.45;;
22015;SDS011;11172;51.698;-0.292;2022-10-12T11:53:24;692.30;;;635.53;;
22015;SDS011;11172;51.698;-0.292;2022-10-12T11:58:23;681.58;;;626.00;;
22015;SDS011;11172;51.698;-0.292;2022-10-12T12:11:21;670.15;;;614.75;;
22015;SDS011;11172;51.698;-0.292;2022-10-12T12:13:48;652.85;;;599.95;;
22015;SDS011;11172;51.698;-0.292;2022-10-12T12:21:28;660.10;;;606.38;;
22015;SDS011;11172;51.698;-0.292;2022-10-12T12:23:54;649.15;;;596.45;;
22015;SDS011;11172;51.698;-0.292;2022-10-12T12:26:21;635.88;;;583.80;;
22015;SDS011;11172;51.698;-0.292;2022-10-12T12:28:50;646.40;;;593.15;;
22015;SDS011;11172;51.698;-0.292;2022-10-12T12:33:43;634.40;;;583.05;;
22015;SDS011;11172;51.698;-0.292;2022-10-12T12:36:25;625.55;;;574.95;;
22015;SDS011;11172;51.698;-0.292;2022-10-12T12:38:53;629.33;;;578.38;;
22015;SDS011;11172;51.698;-0.292;2022-10-12T12:41:20;622.42;;;573.10;;
22015;SDS011;11172;51.698;-0.292;2022-10-12T12:43:51;626.55;;;576.38;;
22015;SDS011;11172;51.698;-0.292;2022-10-12T12:46:17;632.65;;;581.05;;
22015;SDS011;11172;51.698;-0.292;2022-10-12T12:51:10;608.15;;;558.53;;
22015;SDS011;11172;51.698;-0.292;2022-10-12T12:53:39;601.25;;;553.47;;
22015;SDS011;11172;51.698;-0.292;2022-10-12T12:56:20;602.03;;;553.67;;
22015;SDS011;11172;51.698;-0.292;2022-10-12T13:14:22;588.30;;;540.55;;
22015;SDS011;11172;51.698;-0.292;2022-10-12T13:19:18;573.00;;;526.33;;
22015;SDS011;11172;51.698;-0.292;2022-10-12T13:21:45;566.78;;;520.60;;
22015;SDS011;11172;51.698;-0.292;2022-10-12T13:26:44;585.03;;;538.20;;
22015;SDS011;11172;51.698;-0.292;2022-10-12T13:29:15;567.90;;;522.40;;
22015;SDS011;11172;51.698;-0.292;2022-10-12T13:31:43;581.88;;;534.63;;
22015;SDS011;11172;51.698;-0.292;2022-10-12T13:34:24;565.75;;;520.35;;
22015;SDS011;11172;51.698;-0.292;2022-10-12T13:37:00;584.03;;;537.15;;
22015;SDS011;11172;51.698;-0.292;2022-10-12T13:39:26;562.70;;;517.08;;
22015;SDS011;11172;51.698;-0.292;2022-10-12T13:41:53;569.35;;;523.65;;
22015;SDS011;11172;51.698;-0.292;2022-10-12T13:44:26;548.28;;;504.08;;
22015;SDS011;11172;51.698;-0.292;2022-10-12T13:46:54;566.38;;;521.25;;
22015;SDS011;11172;51.698;-0.292;2022-10-12T13:49:25;556.97;;;512.78;;
22015;SDS011;11172;51.698;-0.292;2022-10-12T13:54:24;559.75;;;515.00;;
22015;SDS011;11172;51.698;-0.292;2022-10-12T13:56:52;549.42;;;505.48;;
22015;SDS011;11172;51.698;-0.292;2022-10-12T13:59:21;560.55;;;515.38;;
22015;SDS011;11172;51.698;-0.292;2022-10-12T14:01:48;553.25;;;508.80;;
22015;SDS011;11172;51.698;-0.292;2022-10-12T14:04:14;542.90;;;498.92;;
22015;SDS011;11172;51.698;-0.292;2022-10-12T14:06:40;547.25;;;504.02;;
22015;SDS011;11172;51.698;-0.292;2022-10-12T14:09:13;542.47;;;499.17;;
22015;SDS011;11172;51.698;-0.292;2022-10-12T14:11:39;529.90;;;487.27;;
22015;SDS011;11172;51.698;-0.292;2022-10-12T14:14:09;537.17;;;494.10;;
22015;SDS011;11172;51.698;-0.292;2022-10-12T14:16:38;534.97;;;494.95;;
22015;SDS011;11172;51.698;-0.292;2022-10-12T14:19:17;534.80;;;491.75;;
22015;SDS011;11172;51.698;-0.292;2022-10-12T14:21:44;553.42;;;509.30;;
22015;SDS011;11172;51.698;-0.292;2022-10-12T14:24:13;525.75;;;483.27;;
22015;SDS011;11172;51.698;-0.292;2022-10-12T14:26:40;531.92;;;489.83;;
22015;SDS011;11172;51.698;-0.292;2022-10-12T14:31:56;536.42;;;493.63;;
22015;SDS011;11172;51.698;-0.292;2022-10-12T14:37:01;525.90;;;483.27;;
22015;SDS011;11172;51.698;-0.292;2022-10-12T14:39:28;530.78;;;488.13;;
22015;SDS011;11172;51.698;-0.292;2022-10-12T14:41:55;515.10;;;473.80;;
22015;SDS011;11172;51.698;-0.292;2022-10-12T14:44:23;518.05;;;476.60;;
22015;SDS011;11172;51.698;-0.292;2022-10-12T14:47:01;520.40;;;479.00;;
22015;SDS011;11172;51.698;-0.292;2022-10-12T14:51:59;523.17;;;481.88;;
22015;SDS011;11172;51.698;-0.292;2022-10-12T14:54:25;519.28;;;477.85;;
22015;SDS011;11172;51.698;-0.292;2022-10-12T14:56:51;512.25;;;471.48;;
22015;SDS011;11172;51.698;-0.292;2022-10-12T14:59:17;525.92;;;484.08;;
22015;SDS011;11172;51.698;-0.292;2022-10-12T15:01:43;514.25;;;473.02;;
22015;SDS011;11172;51.698;-0.292;2022-10-12T15:04:13;515.97;;;474.77;;
22015;SDS011;11172;51.698;-0.292;2022-10-12T15:06:39;503.88;;;463.95;;
22015;SDS011;11172;51.698;-0.292;2022-10-12T15:09:05;527.38;;;485.35;;
22015;SDS011;11172;51.698;-0.292;2022-10-12T15:11:31;508.13;;;467.90;;
22015;SDS011;11172;51.698;-0.292;2022-10-12T15:13:57;524.95;;;483.50;;
22015;SDS011;11172;51.698;-0.292;2022-10-12T15:16:24;519.30;;;477.65;;
22015;SDS011;11172;51.698;-0.292;2022-10-12T15:18:50;517.20;;;475.63;;
22015;SDS011;11172;51.698;-0.292;2022-10-12T15:21:16;510.25;;;469.40;;
22015;SDS011;11172;51.698;-0.292;2022-10-12T15:23:43;518.85;;;477.55;;
22015;SDS011;11172;51.698;-0.292;2022-10-12T15:26:13;513.67;;;472.17;;
22015;SDS011;11172;51.698;-0.292;2022-10-12T15:28:39;534.67;;;491.77;;
22015;SDS011;11172;51.698;-0.292;2022-10-12T15:31:05;518.95;;;477.80;;
22015;SDS011;11172;51.698;-0.292;2022-10-12T15:33:31;523.47;;;481.65;;
22015;SDS011;11172;51.698;-0.292;2022-10-12T15:35:57;512.03;;;471.60;;
22015;SDS011;11172;51.698;-0.292;2022-10-12T15:38:23;513.25;;;472.10;;
22015;SDS011;11172;51.698;-0.292;2022-10-12T15:40:49;503.75;;;462.52;;
22015;SDS011;11172;51.698;-0.292;2022-10-12T15:43:16;524.30;;;481.98;;
22015;SDS011;11172;51.698;-0.292;2022-10-12T15:45:43;514.97;;;473.75;;
22015;SDS011;11172;51.698;-0.292;2022-10-12T15:48:09;504.52;;;462.95;;
22015;SDS011;11172;51.698;-0.292;2022-10-12T15:50:37;513.42;;;471.95;;
22015;SDS011;11172;51.698;-0.292;2022-10-12T15:53:03;511.63;;;470.15;;
22015;SDS011;11172;51.698;-0.292;2022-10-12T15:55:30;515.03;;;473.77;;